Temp: 17.4°C   Baro: 1010.2mb
  Wind: 8.1mph   Dir: WNW (283°)
  Rain: 0.8mm (0.0mm/hr)
  Solar: 149W/m2  Hum: 92%
 
Bath Spa Weather Station Historical Data
Daily Summary for June 28, 2019 Units:  Both    English   Metric
Daily Weekly Monthly Yearly Custom
  High: Low: Average:
Temperature: 70.2 °F /  21.2 °C 53.6 °F /  12 °C 62.2 °F /  16.8 °C
Dew Point: 58.3 °F /  14.6 °C 51.1 °F /  10.6 °C 54.4 °F /  12.4 °C
Humidity: 92% 56% 76%
Wind Speed: 20mph /  32.2km/h - 4.7mph /  7.6km/h
Wind Gust: 23mph /  37km/h - -
Wind- - WNW
Pressure: 29.78 in /  1008.4 hPa 29.72 in /  1006.3 hPa -
Precipitation: 0.00 in /  0 mm    
Historical Graphs
 
 
Tabular Data for June 28, 2019
Time Temperature Dew Point Pressure Wind Wind Speed Wind Gust Humidity Rainfall Rate (Hourly) solar
00:04 58.6 °F /  14.8 °C 54.9 °F /  12.7 °C 29.77in /  1008hPa Calm   2mph /  3.2km/h 87% 0.00in /  0mm 0 W/m2
00:09 58.8 °F /  14.9 °C 54.7 °F /  12.6 °C 29.77in /  1008hPa NW 4mph /  6.4km/h 4mph /  6.4km/h 86% 0.00in /  0mm 0 W/m2
00:14 58.8 °F /  14.9 °C 54.7 °F /  12.6 °C 29.77in /  1008hPa NW 2mph /  3.2km/h 5mph /  8km/h 86% 0.00in /  0mm 0 W/m2
00:19 58.8 °F /  14.9 °C 54.7 °F /  12.6 °C 29.77in /  1008hPa WNW 2mph /  3.2km/h 5mph /  8km/h 86% 0.00in /  0mm 0 W/m2
00:24 58.8 °F /  14.9 °C 54.7 °F /  12.6 °C 29.77in /  1008hPa WNW 0.9mph /  1.4km/h 4mph /  6.4km/h 86% 0.00in /  0mm 0 W/m2
00:29 58.8 °F /  14.9 °C 54.7 °F /  12.6 °C 29.77in /  1008hPa WNW 2mph /  3.2km/h 3mph /  4.8km/h 86% 0.00in /  0mm 0 W/m2
00:34 58.8 °F /  14.9 °C 54.7 °F /  12.6 °C 29.76in /  1007.7hPa WNW 2.9mph /  4.7km/h 3mph /  4.8km/h 86% 0.00in /  0mm 0 W/m2
00:39 59 °F /  15 °C 54.5 °F /  12.5 °C 29.76in /  1007.7hPa WNW 0.9mph /  1.4km/h 3mph /  4.8km/h 85% 0.00in /  0mm 0 W/m2
00:44 59 °F /  15 °C 54.5 °F /  12.5 °C 29.76in /  1007.7hPa WNW 2mph /  3.2km/h 4mph /  6.4km/h 85% 0.00in /  0mm 0 W/m2
00:49 59 °F /  15 °C 54.5 °F /  12.5 °C 29.76in /  1007.7hPa WNW 5mph /  8km/h 5mph /  8km/h 85% 0.00in /  0mm 0 W/m2
00:54 59 °F /  15 °C 54.5 °F /  12.5 °C 29.76in /  1007.7hPa WNW 2mph /  3.2km/h 4mph /  6.4km/h 85% 0.00in /  0mm 0 W/m2
00:59 59 °F /  15 °C 54.5 °F /  12.5 °C 29.76in /  1007.7hPa WNW 0.9mph /  1.4km/h 4mph /  6.4km/h 85% 0.00in /  0mm 0 W/m2
01:04 59 °F /  15 °C 54.5 °F /  12.5 °C 29.76in /  1007.7hPa WNW 2mph /  3.2km/h 3mph /  4.8km/h 85% 0.00in /  0mm 0 W/m2
01:09 58.8 °F /  14.9 °C 54.3 °F /  12.4 °C 29.76in /  1007.7hPa WNW 2mph /  3.2km/h 4mph /  6.4km/h 85% 0.00in /  0mm 0 W/m2
01:14 58.8 °F /  14.9 °C 54.3 °F /  12.4 °C 29.76in /  1007.7hPa WNW 2mph /  3.2km/h 3mph /  4.8km/h 85% 0.00in /  0mm 0 W/m2
01:19 58.8 °F /  14.9 °C 54.3 °F /  12.4 °C 29.75in /  1007.3hPa Calm   3mph /  4.8km/h 85% 0.00in /  0mm 0 W/m2
01:24 58.8 °F /  14.9 °C 54.3 °F /  12.4 °C 29.75in /  1007.3hPa WNW 2.9mph /  4.7km/h 3mph /  4.8km/h 85% 0.00in /  0mm 0 W/m2
01:29 58.8 °F /  14.9 °C 54.3 °F /  12.4 °C 29.75in /  1007.3hPa Calm   3mph /  4.8km/h 85% 0.00in /  0mm 0 W/m2
01:34 58.8 °F /  14.9 °C 54.3 °F /  12.4 °C 29.75in /  1007.3hPa WNW 0.9mph /  1.4km/h 3mph /  4.8km/h 85% 0.00in /  0mm 0 W/m2
01:39 58.6 °F /  14.8 °C 54.1 °F /  12.3 °C 29.75in /  1007.3hPa WNW 0.9mph /  1.4km/h 4mph /  6.4km/h 85% 0.00in /  0mm 0 W/m2
01:44 58.6 °F /  14.8 °C 54.1 °F /  12.3 °C 29.75in /  1007.3hPa Calm   1mph /  1.6km/h 85% 0.00in /  0mm 0 W/m2
01:49 58.5 °F /  14.7 °C 54 °F /  12.2 °C 29.75in /  1007.3hPa WNW 0.9mph /  1.4km/h 2mph /  3.2km/h 85% 0.00in /  0mm 0 W/m2
01:54 58.3 °F /  14.6 °C 53.8 °F /  12.1 °C 29.75in /  1007.3hPa Calm   3mph /  4.8km/h 85% 0.00in /  0mm 0 W/m2
01:59 58.3 °F /  14.6 °C 53.8 °F /  12.1 °C 29.75in /  1007.3hPa Calm   2mph /  3.2km/h 85% 0.00in /  0mm 0 W/m2
02:04 58.1 °F /  14.5 °C 54 °F /  12.2 °C 29.75in /  1007.3hPa Calm     86% 0.00in /  0mm 0 W/m2
02:09 57.9 °F /  14.4 °C 53.8 °F /  12.1 °C 29.75in /  1007.3hPa WNW 0.9mph /  1.4km/h 2mph /  3.2km/h 86% 0.00in /  0mm 0 W/m2
02:14 57.7 °F /  14.3 °C 53.6 °F /  12 °C 29.75in /  1007.3hPa Calm   2mph /  3.2km/h 86% 0.00in /  0mm 0 W/m2
02:19 57.6 °F /  14.2 °C 53.4 °F /  11.9 °C 29.75in /  1007.3hPa Calm   1mph /  1.6km/h 86% 0.00in /  0mm 0 W/m2
02:24 57.4 °F /  14.1 °C 53.2 °F /  11.8 °C 29.75in /  1007.3hPa WNW 2mph /  3.2km/h 2mph /  3.2km/h 86% 0.00in /  0mm 0 W/m2
02:29 57.2 °F /  14 °C 53.4 °F /  11.9 °C 29.75in /  1007.3hPa Calm   1mph /  1.6km/h 87% 0.00in /  0mm 0 W/m2
02:34 57 °F /  13.9 °C 53.2 °F /  11.8 °C 29.75in /  1007.3hPa Calm   2mph /  3.2km/h 87% 0.00in /  0mm 0 W/m2
02:39 57 °F /  13.9 °C 53.2 °F /  11.8 °C 29.75in /  1007.3hPa Calm   2mph /  3.2km/h 87% 0.00in /  0mm 0 W/m2
02:44 56.7 °F /  13.7 °C 52.9 °F /  11.6 °C 29.75in /  1007.3hPa Calm   2mph /  3.2km/h 87% 0.00in /  0mm 0 W/m2
02:49 56.7 °F /  13.7 °C 52.9 °F /  11.6 °C 29.74in /  1007hPa Calm   2mph /  3.2km/h 87% 0.00in /  0mm 0 W/m2
02:54 56.5 °F /  13.6 °C 52.7 °F /  11.5 °C 29.74in /  1007hPa Calm   1mph /  1.6km/h 87% 0.00in /  0mm 0 W/m2
02:59 56.3 °F /  13.5 °C 52.9 °F /  11.6 °C 29.74in /  1007hPa WNW 0.9mph /  1.4km/h 2mph /  3.2km/h 88% 0.00in /  0mm 0 W/m2
03:04 56.1 °F /  13.4 °C 52.7 °F /  11.5 °C 29.74in /  1007hPa Calm   2mph /  3.2km/h 88% 0.00in /  0mm 0 W/m2
03:09 56.1 °F /  13.4 °C 52.7 °F /  11.5 °C 29.74in /  1007hPa WNW 0.9mph /  1.4km/h 2mph /  3.2km/h 88% 0.00in /  0mm 0 W/m2
03:14 55.9 °F /  13.3 °C 52.5 °F /  11.4 °C 29.74in /  1007hPa Calm   2mph /  3.2km/h 88% 0.00in /  0mm 0 W/m2
03:19 55.9 °F /  13.3 °C 52.5 °F /  11.4 °C 29.74in /  1007hPa Calm     88% 0.00in /  0mm 0 W/m2
03:24 55.8 °F /  13.2 °C 52.5 °F /  11.4 °C 29.74in /  1007hPa WNW 0.9mph /  1.4km/h 2mph /  3.2km/h 89% 0.00in /  0mm 0 W/m2
03:29 55.8 °F /  13.2 °C 52.5 °F /  11.4 °C 29.74in /  1007hPa Calm   3mph /  4.8km/h 89% 0.00in /  0mm 0 W/m2
03:34 55.4 °F /  13 °C 52.2 °F /  11.2 °C 29.74in /  1007hPa WNW 0.9mph /  1.4km/h 3mph /  4.8km/h 89% 0.00in /  0mm 0 W/m2
03:39 55.4 °F /  13 °C 52.2 °F /  11.2 °C 29.74in /  1007hPa Calm   2mph /  3.2km/h 89% 0.00in /  0mm 0 W/m2
03:44 55.2 °F /  12.9 °C 52 °F /  11.1 °C 29.74in /  1007hPa WNW 0.9mph /  1.4km/h 2mph /  3.2km/h 89% 0.00in /  0mm 0 W/m2
03:49 55.2 °F /  12.9 °C 52 °F /  11.1 °C 29.74in /  1007hPa WNW 0.9mph /  1.4km/h 2mph /  3.2km/h 89% 0.00in /  0mm 0 W/m2
03:54 55.2 °F /  12.9 °C 52.3 °F /  11.3 °C 29.74in /  1007hPa WNW 0.9mph /  1.4km/h 1mph /  1.6km/h 90% 0.00in /  0mm 0 W/m2
03:59 55 °F /  12.8 °C 52.2 °F /  11.2 °C 29.74in /  1007hPa WNW 0.9mph /  1.4km/h 3mph /  4.8km/h 90% 0.00in /  0mm 0 W/m2
04:04 55 °F /  12.8 °C 52.2 °F /  11.2 °C 29.74in /  1007hPa WNW 4mph /  6.4km/h 4mph /  6.4km/h 90% 0.00in /  0mm 0 W/m2
04:09 55 °F /  12.8 °C 52.2 °F /  11.2 °C 29.74in /  1007hPa WNW 0.9mph /  1.4km/h 3mph /  4.8km/h 90% 0.00in /  0mm 0 W/m2
04:14 54.9 °F /  12.7 °C 52 °F /  11.1 °C 29.74in /  1007hPa Calm   3mph /  4.8km/h 90% 0.00in /  0mm 0 W/m2
04:19 54.9 °F /  12.7 °C 52 °F /  11.1 °C 29.74in /  1007hPa WNW 2mph /  3.2km/h 3mph /  4.8km/h 90% 0.00in /  0mm 0 W/m2
04:24 54.7 °F /  12.6 °C 51.8 °F /  11 °C 29.74in /  1007hPa WNW 2mph /  3.2km/h 3mph /  4.8km/h 90% 0.00in /  0mm 0 W/m2
04:29 54.7 °F /  12.6 °C 51.8 °F /  11 °C 29.74in /  1007hPa WNW 2mph /  3.2km/h 3mph /  4.8km/h 90% 0.00in /  0mm 0 W/m2
04:34 54.7 °F /  12.6 °C 52.2 °F /  11.2 °C 29.74in /  1007hPa WNW 2.9mph /  4.7km/h 3mph /  4.8km/h 91% 0.00in /  0mm 0 W/m2
04:39 54.5 °F /  12.5 °C 52 °F /  11.1 °C 29.74in /  1007hPa WNW 2mph /  3.2km/h 4mph /  6.4km/h 91% 0.00in /  0mm 0 W/m2
04:44 54.5 °F /  12.5 °C 52 °F /  11.1 °C 29.74in /  1007hPa WNW 0.9mph /  1.4km/h 3mph /  4.8km/h 91% 0.00in /  0mm 0 W/m2
04:49 54.5 °F /  12.5 °C 52 °F /  11.1 °C 29.75in /  1007.3hPa WNW 0.9mph /  1.4km/h 3mph /  4.8km/h 91% 0.00in /  0mm 0 W/m2
04:54 54.5 °F /  12.5 °C 52 °F /  11.1 °C 29.74in /  1007hPa Calm   2mph /  3.2km/h 91% 0.00in /  0mm 0 W/m2
04:59 54.3 °F /  12.4 °C 51.8 °F /  11 °C 29.75in /  1007.3hPa Calm     91% 0.00in /  0mm 0 W/m2
05:04 54.3 °F /  12.4 °C 51.8 °F /  11 °C 29.74in /  1007hPa Calm     91% 0.00in /  0mm 0 W/m2
05:09 54.1 °F /  12.3 °C 51.6 °F /  10.9 °C 29.74in /  1007hPa Calm     91% 0.00in /  0mm 0 W/m2
05:14 54.1 °F /  12.3 °C 51.6 °F /  10.9 °C 29.74in /  1007hPa Calm     91% 0.00in /  0mm 0 W/m2
05:19 54.1 °F /  12.3 °C 51.6 °F /  10.9 °C 29.74in /  1007hPa Calm     91% 0.00in /  0mm 0 W/m2
05:24 54 °F /  12.2 °C 51.4 °F /  10.8 °C 29.74in /  1007hPa Calm     91% 0.00in /  0mm 0 W/m2
05:29 53.8 °F /  12.1 °C 51.3 °F /  10.7 °C 29.74in /  1007hPa Calm     91% 0.00in /  0mm 0 W/m2
05:34 53.8 °F /  12.1 °C 51.3 °F /  10.7 °C 29.74in /  1007hPa Calm     91% 0.00in /  0mm 5 W/m2
05:39 53.6 °F /  12 °C 51.1 °F /  10.6 °C 29.75in /  1007.3hPa Calm     91% 0.00in /  0mm 7 W/m2
05:44 53.8 °F /  12.1 °C 51.3 °F /  10.7 °C 29.75in /  1007.3hPa Calm     91% 0.00in /  0mm 11 W/m2
05:49 53.8 °F /  12.1 °C 51.3 °F /  10.7 °C 29.74in /  1007hPa Calm     91% 0.00in /  0mm 14 W/m2
05:54 53.8 °F /  12.1 °C 51.3 °F /  10.7 °C 29.74in /  1007hPa Calm     91% 0.00in /  0mm 18 W/m2
05:59 53.8 °F /  12.1 °C 51.3 °F /  10.7 °C 29.74in /  1007hPa Calm     91% 0.00in /  0mm 23 W/m2
06:04 54 °F /  12.2 °C 51.6 °F /  10.9 °C 29.75in /  1007.3hPa Calm     92% 0.00in /  0mm 26 W/m2
06:09 54 °F /  12.2 °C 51.6 °F /  10.9 °C 29.74in /  1007hPa Calm     92% 0.00in /  0mm 30 W/m2
06:14 54 °F /  12.2 °C 51.6 °F /  10.9 °C 29.74in /  1007hPa Calm     92% 0.00in /  0mm 33 W/m2
06:19 54 °F /  12.2 °C 51.6 °F /  10.9 °C 29.74in /  1007hPa Calm     92% 0.00in /  0mm 39 W/m2
06:24 54 °F /  12.2 °C 51.6 °F /  10.9 °C 29.75in /  1007.3hPa Calm     92% 0.00in /  0mm 42 W/m2
06:29 54.1 °F /  12.3 °C 51.8 °F /  11 °C 29.74in /  1007hPa Calm     92% 0.00in /  0mm 44 W/m2
06:34 54.3 °F /  12.4 °C 52 °F /  11.1 °C 29.74in /  1007hPa Calm     92% 0.00in /  0mm 49 W/m2
06:39 54.3 °F /  12.4 °C 52 °F /  11.1 °C 29.74in /  1007hPa Calm     92% 0.00in /  0mm 53 W/m2
06:44 54.5 °F /  12.5 °C 52.2 °F /  11.2 °C 29.74in /  1007hPa Calm     92% 0.00in /  0mm 53 W/m2
06:49 54.5 °F /  12.5 °C 52.2 °F /  11.2 °C 29.74in /  1007hPa Calm     92% 0.00in /  0mm 54 W/m2
06:54 54.7 °F /  12.6 °C 52.3 °F /  11.3 °C 29.74in /  1007hPa WNW 0.9mph /  1.4km/h 3mph /  4.8km/h 92% 0.00in /  0mm 56 W/m2
06:59 54.9 °F /  12.7 °C 52.5 °F /  11.4 °C 29.74in /  1007hPa Calm   2mph /  3.2km/h 92% 0.00in /  0mm 49 W/m2
07:04 55 °F /  12.8 °C 52.7 °F /  11.5 °C 29.74in /  1007hPa Calm     92% 0.00in /  0mm 63 W/m2
07:09 55 °F /  12.8 °C 52.7 °F /  11.5 °C 29.74in /  1007hPa Calm     92% 0.00in /  0mm 84 W/m2
07:14 55.2 °F /  12.9 °C 52.9 °F /  11.6 °C 29.74in /  1007hPa Calm     92% 0.00in /  0mm 100 W/m2
07:19 55.4 °F /  13 °C 53.1 °F /  11.7 °C 29.74in /  1007hPa WNW 1mph /  1.6km/h 1mph /  1.6km/h 92% 0.00in /  0mm 93 W/m2
07:24 55.6 °F /  13.1 °C 53.2 °F /  11.8 °C 29.74in /  1007hPa Calm     92% 0.00in /  0mm 72 W/m2
07:29 55.9 °F /  13.3 °C 53.4 °F /  11.9 °C 29.74in /  1007hPa Calm   2mph /  3.2km/h 91% 0.00in /  0mm 77 W/m2
07:34 56.1 °F /  13.4 °C 53.6 °F /  12 °C 29.74in /  1007hPa WNW 2mph /  3.2km/h 2mph /  3.2km/h 91% 0.00in /  0mm 86 W/m2
07:39 56.3 °F /  13.5 °C 53.8 °F /  12.1 °C 29.74in /  1007hPa Calm   2mph /  3.2km/h 91% 0.00in /  0mm 109 W/m2
07:44 56.5 °F /  13.6 °C 54 °F /  12.2 °C 29.74in /  1007hPa WNW 3mph /  4.8km/h 3mph /  4.8km/h 91% 0.00in /  0mm 134 W/m2
07:49 56.8 °F /  13.8 °C 54.3 °F /  12.4 °C 29.74in /  1007hPa WNW 0.9mph /  1.4km/h 4mph /  6.4km/h 91% 0.00in /  0mm 121 W/m2
07:54 57.2 °F /  14 °C 54.7 °F /  12.6 °C 29.74in /  1007hPa Calm   2mph /  3.2km/h 91% 0.00in /  0mm 123 W/m2
07:59 57.4 °F /  14.1 °C 54.5 °F /  12.5 °C 29.74in /  1007hPa WNW 2mph /  3.2km/h 5mph /  8km/h 90% 0.00in /  0mm 128 W/m2
08:04 57.6 °F /  14.2 °C 54.7 °F /  12.6 °C 29.74in /  1007hPa Calm   2mph /  3.2km/h 90% 0.00in /  0mm 162 W/m2
08:09 57.9 °F /  14.4 °C 55 °F /  12.8 °C 29.74in /  1007hPa Calm   2mph /  3.2km/h 90% 0.00in /  0mm 195 W/m2
08:14 58.1 °F /  14.5 °C 55.2 °F /  12.9 °C 29.74in /  1007hPa WNW 0.9mph /  1.4km/h 3mph /  4.8km/h 90% 0.00in /  0mm 244 W/m2
08:19 58.5 °F /  14.7 °C 55.2 °F /  12.9 °C 29.74in /  1007hPa WNW 7mph /  11.3km/h 7mph /  11.3km/h 89% 0.00in /  0mm 251 W/m2
08:24 59.2 °F /  15.1 °C 55.6 °F /  13.1 °C 29.74in /  1007hPa NW 2mph /  3.2km/h 8mph /  12.9km/h 88% 0.00in /  0mm 172 W/m2
08:29 59.9 °F /  15.5 °C 55 °F /  12.8 °C 29.73in /  1006.7hPa WNW 4.9mph /  7.9km/h 10mph /  16.1km/h 84% 0.00in /  0mm 218 W/m2
08:34 60.4 °F /  15.8 °C 54.5 °F /  12.5 °C 29.74in /  1007hPa WNW 4.9mph /  7.9km/h 7mph /  11.3km/h 81% 0.00in /  0mm 297 W/m2
08:39 60.8 °F /  16 °C 53.6 °F /  12 °C 29.74in /  1007hPa WNW 4.9mph /  7.9km/h 11mph /  17.7km/h 77% 0.00in /  0mm 306 W/m2
08:44 61.2 °F /  16.2 °C 53.6 °F /  12 °C 29.74in /  1007hPa NNW 2mph /  3.2km/h 7mph /  11.3km/h 76% 0.00in /  0mm 313 W/m2
08:49 61.3 °F /  16.3 °C 53.4 °F /  11.9 °C 29.74in /  1007hPa Calm   7mph /  11.3km/h 75% 0.00in /  0mm 202 W/m2
08:54 61.5 °F /  16.4 °C 53.2 °F /  11.8 °C 29.74in /  1007hPa West 0.9mph /  1.4km/h 9mph /  14.5km/h 74% 0.00in /  0mm 281 W/m2
08:59 61.9 °F /  16.6 °C 53.4 °F /  11.9 °C 29.74in /  1007hPa North 4.9mph /  7.9km/h 7mph /  11.3km/h 74% 0.00in /  0mm 410 W/m2
09:04 61.9 °F /  16.6 °C 53.1 °F /  11.7 °C 29.73in /  1006.7hPa WNW 6mph /  9.7km/h 7mph /  11.3km/h 73% 0.00in /  0mm 341 W/m2
09:09 62.2 °F /  16.8 °C 53.4 °F /  11.9 °C 29.74in /  1007hPa WNW 8.9mph /  14.3km/h 10mph /  16.1km/h 73% 0.00in /  0mm 304 W/m2
09:14 62.1 °F /  16.7 °C 52.9 °F /  11.6 °C 29.73in /  1006.7hPa WNW 12mph /  19.3km/h 12mph /  19.3km/h 72% 0.00in /  0mm 329 W/m2
09:19 62.2 °F /  16.8 °C 52.7 °F /  11.5 °C 29.74in /  1007hPa NW 12.1mph /  19.5km/h 12mph /  19.3km/h 71% 0.00in /  0mm 339 W/m2
09:24 62.4 °F /  16.9 °C 52.5 °F /  11.4 °C 29.74in /  1007hPa WNW 4.9mph /  7.9km/h 11mph /  17.7km/h 70% 0.00in /  0mm 355 W/m2
09:29 62.4 °F /  16.9 °C 52.2 °F /  11.2 °C 29.74in /  1007hPa WNW 4.9mph /  7.9km/h 10mph /  16.1km/h 69% 0.00in /  0mm 287 W/m2
09:34 62.6 °F /  17 °C 52.3 °F /  11.3 °C 29.73in /  1006.7hPa West 8.9mph /  14.3km/h 9mph /  14.5km/h 69% 0.00in /  0mm 348 W/m2
09:39 63 °F /  17.2 °C 52.7 °F /  11.5 °C 29.74in /  1007hPa NW 8.1mph /  13km/h 8mph /  12.9km/h 69% 0.00in /  0mm 462 W/m2
09:44 63.1 °F /  17.3 °C 52.3 °F /  11.3 °C 29.74in /  1007hPa NNW 8.1mph /  13km/h 11mph /  17.7km/h 68% 0.00in /  0mm 533 W/m2
09:49 63.1 °F /  17.3 °C 52.3 °F /  11.3 °C 29.74in /  1007hPa NNW 8.1mph /  13km/h 12mph /  19.3km/h 68% 0.00in /  0mm 536 W/m2
09:54 63.1 °F /  17.3 °C 52 °F /  11.1 °C 29.74in /  1007hPa NW 4mph /  6.4km/h 15mph /  24.1km/h 67% 0.00in /  0mm 536 W/m2
09:59 63.9 °F /  17.7 °C 52.7 °F /  11.5 °C 29.74in /  1007hPa North 15mph /  24.1km/h 15mph /  24.1km/h 67% 0.00in /  0mm 654 W/m2
10:04 64.2 °F /  17.9 °C 52.2 °F /  11.2 °C 29.74in /  1007hPa WNW 4.9mph /  7.9km/h 11mph /  17.7km/h 65% 0.00in /  0mm 188 W/m2
10:09 64.4 °F /  18 °C 52.3 °F /  11.3 °C 29.74in /  1007hPa NW 10.1mph /  16.3km/h 13mph /  20.9km/h 65% 0.00in /  0mm 621 W/m2
10:14 64.2 °F /  17.9 °C 52.2 °F /  11.2 °C 29.74in /  1007hPa West 11mph /  17.7km/h 13mph /  20.9km/h 65% 0.00in /  0mm 617 W/m2
10:19 65.3 °F /  18.5 °C 52.9 °F /  11.6 °C 29.74in /  1007hPa NNW 6.9mph /  11.1km/h 11mph /  17.7km/h 64% 0.00in /  0mm 661 W/m2
10:24 64.9 °F /  18.3 °C 52.5 °F /  11.4 °C 29.73in /  1006.7hPa NNW 4.9mph /  7.9km/h 10mph /  16.1km/h 64% 0.00in /  0mm 668 W/m2
10:29 65.3 °F /  18.5 °C 53.6 °F /  12 °C 29.74in /  1007hPa NW 8.9mph /  14.3km/h 13mph /  20.9km/h 66% 0.00in /  0mm 497 W/m2
10:34 65.3 °F /  18.5 °C 54.1 °F /  12.3 °C 29.73in /  1006.7hPa North 2.9mph /  4.7km/h 16mph /  25.7km/h 67% 0.00in /  0mm 708 W/m2
10:39 65.5 °F /  18.6 °C 53.8 °F /  12.1 °C 29.74in /  1007hPa NNW 17mph /  27.4km/h 17mph /  27.4km/h 66% 0.00in /  0mm 744 W/m2
10:44 65.1 °F /  18.4 °C 54 °F /  12.2 °C 29.74in /  1007hPa NW 2.9mph /  4.7km/h 8mph /  12.9km/h 67% 0.00in /  0mm 315 W/m2
10:49 65.3 °F /  18.5 °C 54.5 °F /  12.5 °C 29.74in /  1007hPa NW 6.9mph /  11.1km/h 9mph /  14.5km/h 68% 0.00in /  0mm 253 W/m2
10:54 64.9 °F /  18.3 °C 53.8 °F /  12.1 °C 29.74in /  1007hPa NW 12mph /  19.3km/h 12mph /  19.3km/h 67% 0.00in /  0mm 274 W/m2
10:59 65.1 °F /  18.4 °C 54.3 °F /  12.4 °C 29.74in /  1007hPa WNW 6mph /  9.7km/h 9mph /  14.5km/h 68% 0.00in /  0mm 292 W/m2
11:04 65.8 °F /  18.8 °C 54.1 °F /  12.3 °C 29.74in /  1007hPa WNW 6.9mph /  11.1km/h 12mph /  19.3km/h 66% 0.00in /  0mm 749 W/m2
11:09 65.8 °F /  18.8 °C 53.8 °F /  12.1 °C 29.74in /  1007hPa WNW 0.9mph /  1.4km/h 12mph /  19.3km/h 65% 0.00in /  0mm 728 W/m2
11:14 66.9 °F /  19.4 °C 55.6 °F /  13.1 °C 29.74in /  1007hPa WNW 4.9mph /  7.9km/h 15mph /  24.1km/h 67% 0.00in /  0mm 213 W/m2
11:19 66.2 °F /  19 °C 54.1 °F /  12.3 °C 29.73in /  1006.7hPa WNW 4mph /  6.4km/h 9mph /  14.5km/h 65% 0.00in /  0mm 770 W/m2
11:24 66.7 °F /  19.3 °C 55 °F /  12.8 °C 29.73in /  1006.7hPa WNW 6mph /  9.7km/h 10mph /  16.1km/h 66% 0.00in /  0mm 788 W/m2
11:29 67.1 °F /  19.5 °C 55.8 °F /  13.2 °C 29.73in /  1006.7hPa West 0.9mph /  1.4km/h 11mph /  17.7km/h 67% 0.00in /  0mm 239 W/m2
11:34 66.4 °F /  19.1 °C 55.6 °F /  13.1 °C 29.73in /  1006.7hPa NW 6.9mph /  11.1km/h 8mph /  12.9km/h 68% 0.00in /  0mm 229 W/m2
11:39 66.6 °F /  19.2 °C 55.2 °F /  12.9 °C 29.73in /  1006.7hPa WNW 2mph /  3.2km/h 10mph /  16.1km/h 67% 0.00in /  0mm 916 W/m2
11:44 67.6 °F /  19.8 °C 55.9 °F /  13.3 °C 29.73in /  1006.7hPa WNW 15mph /  24.1km/h 15mph /  24.1km/h 66% 0.00in /  0mm 304 W/m2
11:49 67.1 °F /  19.5 °C 55.8 °F /  13.2 °C 29.72in /  1006.3hPa Calm   6mph /  9.7km/h 67% 0.00in /  0mm 891 W/m2
11:54 67.5 °F /  19.7 °C 55.2 °F /  12.9 °C 29.72in /  1006.3hPa WNW 4mph /  6.4km/h 9mph /  14.5km/h 65% 0.00in /  0mm 907 W/m2
11:59 67.8 °F /  19.9 °C 56.1 °F /  13.4 °C 29.72in /  1006.3hPa West 8.9mph /  14.3km/h 11mph /  17.7km/h 66% 0.00in /  0mm 323 W/m2
12:04 67.5 °F /  19.7 °C 55.8 °F /  13.2 °C 29.72in /  1006.3hPa WNW 8.9mph /  14.3km/h 12mph /  19.3km/h 66% 0.00in /  0mm 211 W/m2
12:09 67.1 °F /  19.5 °C 55.4 °F /  13 °C 29.72in /  1006.3hPa NW 4mph /  6.4km/h 12mph /  19.3km/h 66% 0.00in /  0mm 877 W/m2
12:14 67.6 °F /  19.8 °C 55.4 °F /  13 °C 29.72in /  1006.3hPa NNW 6.9mph /  11.1km/h 11mph /  17.7km/h 65% 0.00in /  0mm 840 W/m2
12:19 67.8 °F /  19.9 °C 55.6 °F /  13.1 °C 29.72in /  1006.3hPa North 4mph /  6.4km/h 15mph /  24.1km/h 65% 0.00in /  0mm 874 W/m2
12:24 68.5 °F /  20.3 °C 55.9 °F /  13.3 °C 29.72in /  1006.3hPa West 8.9mph /  14.3km/h 12mph /  19.3km/h 64% 0.00in /  0mm 292 W/m2
12:29 69.1 °F /  20.6 °C 55.9 °F /  13.3 °C 29.72in /  1006.3hPa WNW 6.9mph /  11.1km/h 8mph /  12.9km/h 63% 0.00in /  0mm 840 W/m2
12:34 68.5 °F /  20.3 °C 55.4 °F /  13 °C 29.72in /  1006.3hPa WSW 6mph /  9.7km/h 10mph /  16.1km/h 63% 0.00in /  0mm 911 W/m2
12:39 68.4 °F /  20.2 °C 55.8 °F /  13.2 °C 29.72in /  1006.3hPa NNW 8.1mph /  13km/h 13mph /  20.9km/h 64% 0.00in /  0mm 163 W/m2
12:44 67.6 °F /  19.8 °C 55 °F /  12.8 °C 29.72in /  1006.3hPa West 4.9mph /  7.9km/h 11mph /  17.7km/h 64% 0.00in /  0mm 849 W/m2
12:49 69.1 °F /  20.6 °C 55.9 °F /  13.3 °C 29.72in /  1006.3hPa WSW 6mph /  9.7km/h 10mph /  16.1km/h 63% 0.00in /  0mm 926 W/m2
12:54 68.5 °F /  20.3 °C 55 °F /  12.8 °C 29.72in /  1006.3hPa West 6.9mph /  11.1km/h 14mph /  22.5km/h 62% 0.00in /  0mm 302 W/m2
12:59 69.3 °F /  20.7 °C 55.8 °F /  13.2 °C 29.72in /  1006.3hPa West 6mph /  9.7km/h 11mph /  17.7km/h 62% 0.00in /  0mm 209 W/m2
13:04 68.9 °F /  20.5 °C 54.9 °F /  12.7 °C 29.72in /  1006.3hPa WNW 0.9mph /  1.4km/h 9mph /  14.5km/h 61% 0.00in /  0mm 888 W/m2
13:09 69.6 °F /  20.9 °C 55 °F /  12.8 °C 29.72in /  1006.3hPa WNW 15mph /  24.1km/h 16mph /  25.7km/h 60% 0.00in /  0mm 202 W/m2
13:14 69.1 °F /  20.6 °C 54.7 °F /  12.6 °C 29.72in /  1006.3hPa WNW 11mph /  17.7km/h 14mph /  22.5km/h 60% 0.00in /  0mm 925 W/m2
13:19 69.3 °F /  20.7 °C 54.3 °F /  12.4 °C 29.72in /  1006.3hPa WNW 6mph /  9.7km/h 17mph /  27.4km/h 59% 0.00in /  0mm 236 W/m2
13:24 68.9 °F /  20.5 °C 54.5 °F /  12.5 °C 29.72in /  1006.3hPa WNW 4mph /  6.4km/h 12mph /  19.3km/h 60% 0.00in /  0mm 227 W/m2
13:29 68.5 °F /  20.3 °C 54.1 °F /  12.3 °C 29.72in /  1006.3hPa WNW 8.9mph /  14.3km/h 16mph /  25.7km/h 60% 0.00in /  0mm 896 W/m2
13:34 69.1 °F /  20.6 °C 54.1 °F /  12.3 °C 29.72in /  1006.3hPa West 18mph /  29km/h 18mph /  29km/h 59% 0.00in /  0mm 884 W/m2
13:39 70 °F /  21.1 °C 54 °F /  12.2 °C 29.72in /  1006.3hPa WNW 6.9mph /  11.1km/h 11mph /  17.7km/h 57% 0.00in /  0mm 884 W/m2
13:44 69.4 °F /  20.8 °C 53.6 °F /  12 °C 29.73in /  1006.7hPa NW 8.9mph /  14.3km/h 20mph /  32.2km/h 57% 0.00in /  0mm 902 W/m2
13:49 70.2 °F /  21.2 °C 54.7 °F /  12.6 °C 29.73in /  1006.7hPa WNW 4.9mph /  7.9km/h 10mph /  16.1km/h 58% 0.00in /  0mm 886 W/m2
13:54 69.8 °F /  21 °C 53.4 °F /  11.9 °C 29.73in /  1006.7hPa WNW 6.9mph /  11.1km/h 15mph /  24.1km/h 56% 0.00in /  0mm 872 W/m2
13:59 69.1 °F /  20.6 °C 53.2 °F /  11.8 °C 29.72in /  1006.3hPa NW 12.1mph /  19.5km/h 17mph /  27.4km/h 57% 0.00in /  0mm 744 W/m2
14:04 68.9 °F /  20.5 °C 53.6 °F /  12 °C 29.72in /  1006.3hPa West 4mph /  6.4km/h 11mph /  17.7km/h 58% 0.00in /  0mm 165 W/m2
14:09 68.5 °F /  20.3 °C 53.6 °F /  12 °C 29.73in /  1006.7hPa WNW 8.9mph /  14.3km/h 12mph /  19.3km/h 59% 0.00in /  0mm 237 W/m2
14:14 68.9 °F /  20.5 °C 53.6 °F /  12 °C 29.73in /  1006.7hPa NW 2.9mph /  4.7km/h 16mph /  25.7km/h 58% 0.00in /  0mm 213 W/m2
14:19 68.5 °F /  20.3 °C 55 °F /  12.8 °C 29.73in /  1006.7hPa NW 6.9mph /  11.1km/h 15mph /  24.1km/h 62% 0.00in /  0mm 276 W/m2
14:24 68.5 °F /  20.3 °C 55.9 °F /  13.3 °C 29.73in /  1006.7hPa WNW 6.9mph /  11.1km/h 16mph /  25.7km/h 64% 0.00in /  0mm 953 W/m2
14:29 70 °F /  21.1 °C 56.8 °F /  13.8 °C 29.72in /  1006.3hPa WSW 11mph /  17.7km/h 11mph /  17.7km/h 63% 0.00in /  0mm 891 W/m2
14:34 69.4 °F /  20.8 °C 57.2 °F /  14 °C 29.72in /  1006.3hPa West 8.9mph /  14.3km/h 14mph /  22.5km/h 65% 0.00in /  0mm 954 W/m2
14:39 68.7 °F /  20.4 °C 57.4 °F /  14.1 °C 29.72in /  1006.3hPa WSW 14.1mph /  22.7km/h 19mph /  30.6km/h 67% 0.00in /  0mm 480 W/m2
14:44 68.7 °F /  20.4 °C 57.4 °F /  14.1 °C 29.72in /  1006.3hPa WNW 6.9mph /  11.1km/h 21mph /  33.8km/h 67% 0.00in /  0mm 984 W/m2
14:49 68.9 °F /  20.5 °C 57.6 °F /  14.2 °C 29.73in /  1006.7hPa West 12.1mph /  19.5km/h 17mph /  27.4km/h 67% 0.00in /  0mm 575 W/m2
14:54 69.1 °F /  20.6 °C 57.7 °F /  14.3 °C 29.72in /  1006.3hPa WSW 2.9mph /  4.7km/h 18mph /  29km/h 67% 0.00in /  0mm 923 W/m2
14:59 69.6 °F /  20.9 °C 57.7 °F /  14.3 °C 29.72in /  1006.3hPa West 8.9mph /  14.3km/h 15mph /  24.1km/h 66% 0.00in /  0mm 807 W/m2
15:04 69.6 °F /  20.9 °C 57.4 °F /  14.1 °C 29.73in /  1006.7hPa West 11mph /  17.7km/h 15mph /  24.1km/h 65% 0.00in /  0mm 178 W/m2
15:09 69.8 °F /  21 °C 57.9 °F /  14.4 °C 29.72in /  1006.3hPa WSW 19mph /  30.6km/h 19mph /  30.6km/h 66% 0.00in /  0mm 810 W/m2
15:14 69.8 °F /  21 °C 57.6 °F /  14.2 °C 29.73in /  1006.7hPa West 10.1mph /  16.3km/h 17mph /  27.4km/h 65% 0.00in /  0mm 819 W/m2
15:19 70.2 °F /  21.2 °C 57.9 °F /  14.4 °C 29.72in /  1006.3hPa WSW 12.1mph /  19.5km/h 17mph /  27.4km/h 65% 0.00in /  0mm 742 W/m2
15:24 69.4 °F /  20.8 °C 57.6 °F /  14.2 °C 29.73in /  1006.7hPa West 17mph /  27.4km/h 23mph /  37km/h 66% 0.00in /  0mm 844 W/m2
15:29 68.7 °F /  20.4 °C 57.4 °F /  14.1 °C 29.73in /  1006.7hPa WSW 16.1mph /  25.9km/h 20mph /  32.2km/h 67% 0.00in /  0mm 795 W/m2
15:34 69.3 °F /  20.7 °C 57.9 °F /  14.4 °C 29.72in /  1006.3hPa WSW 17mph /  27.4km/h 17mph /  27.4km/h 67% 0.00in /  0mm 733 W/m2
15:39 69.3 °F /  20.7 °C 57.4 °F /  14.1 °C 29.73in /  1006.7hPa WNW 8.9mph /  14.3km/h 17mph /  27.4km/h 66% 0.00in /  0mm 773 W/m2
15:44 68.9 °F /  20.5 °C 57 °F /  13.9 °C 29.72in /  1006.3hPa West 8.9mph /  14.3km/h 15mph /  24.1km/h 66% 0.00in /  0mm 738 W/m2
15:49 69.4 °F /  20.8 °C 56.7 °F /  13.7 °C 29.72in /  1006.3hPa WNW 11mph /  17.7km/h 12mph /  19.3km/h 64% 0.00in /  0mm 703 W/m2
15:54 69.3 °F /  20.7 °C 56.1 °F /  13.4 °C 29.72in /  1006.3hPa NNW 14.1mph /  22.7km/h 16mph /  25.7km/h 63% 0.00in /  0mm 714 W/m2
15:59 69.6 °F /  20.9 °C 56.5 °F /  13.6 °C 29.72in /  1006.3hPa West 15mph /  24.1km/h 18mph /  29km/h 63% 0.00in /  0mm 700 W/m2
16:04 69.6 °F /  20.9 °C 56.5 °F /  13.6 °C 29.72in /  1006.3hPa SSW 8.1mph /  13km/h 18mph /  29km/h 63% 0.00in /  0mm 694 W/m2
16:09 69.4 °F /  20.8 °C 57.2 °F /  14 °C 29.72in /  1006.3hPa WNW 4.9mph /  7.9km/h 21mph /  33.8km/h 65% 0.00in /  0mm 684 W/m2
16:14 69.8 °F /  21 °C 57 °F /  13.9 °C 29.72in /  1006.3hPa WNW 12.1mph /  19.5km/h 12mph /  19.3km/h 64% 0.00in /  0mm 673 W/m2
16:19 69.8 °F /  21 °C 56.7 °F /  13.7 °C 29.72in /  1006.3hPa WNW 10.1mph /  16.3km/h 16mph /  25.7km/h 63% 0.00in /  0mm 656 W/m2
16:24 69.6 °F /  20.9 °C 55.6 °F /  13.1 °C 29.72in /  1006.3hPa WSW 15mph /  24.1km/h 17mph /  27.4km/h 61% 0.00in /  0mm 636 W/m2
16:29 70 °F /  21.1 °C 56.3 °F /  13.5 °C 29.72in /  1006.3hPa WNW 6mph /  9.7km/h 16mph /  25.7km/h 62% 0.00in /  0mm 615 W/m2
16:34 69.4 °F /  20.8 °C 55.9 °F /  13.3 °C 29.72in /  1006.3hPa NW 10.1mph /  16.3km/h 13mph /  20.9km/h 62% 0.00in /  0mm 640 W/m2
16:39 69.4 °F /  20.8 °C 56.7 °F /  13.7 °C 29.72in /  1006.3hPa WNW 20mph /  32.2km/h 20mph /  32.2km/h 64% 0.00in /  0mm 631 W/m2
16:44 69.4 °F /  20.8 °C 55.9 °F /  13.3 °C 29.72in /  1006.3hPa NNW 11mph /  17.7km/h 11mph /  17.7km/h 62% 0.00in /  0mm 599 W/m2
16:49 69.8 °F /  21 °C 56.7 °F /  13.7 °C 29.72in /  1006.3hPa NW 4.9mph /  7.9km/h 13mph /  20.9km/h 63% 0.00in /  0mm 573 W/m2
16:54 69.6 °F /  20.9 °C 56.8 °F /  13.8 °C 29.72in /  1006.3hPa West 19mph /  30.6km/h 19mph /  30.6km/h 64% 0.00in /  0mm 487 W/m2
16:59 68.5 °F /  20.3 °C 56.3 °F /  13.5 °C 29.72in /  1006.3hPa West 15mph /  24.1km/h 17mph /  27.4km/h 65% 0.00in /  0mm 258 W/m2
17:04 68.9 °F /  20.5 °C 56.7 °F /  13.7 °C 29.73in /  1006.7hPa NW 11mph /  17.7km/h 17mph /  27.4km/h 65% 0.00in /  0mm 399 W/m2
17:09 68.7 °F /  20.4 °C 56.8 °F /  13.8 °C 29.72in /  1006.3hPa WNW 11mph /  17.7km/h 18mph /  29km/h 66% 0.00in /  0mm 605 W/m2
17:14 69.1 °F /  20.6 °C 56.8 °F /  13.8 °C 29.72in /  1006.3hPa West 10.1mph /  16.3km/h 20mph /  32.2km/h 65% 0.00in /  0mm 568 W/m2
17:19 68.7 °F /  20.4 °C 56.8 °F /  13.8 °C 29.72in /  1006.3hPa West 8.9mph /  14.3km/h 15mph /  24.1km/h 66% 0.00in /  0mm 548 W/m2
17:24 68.7 °F /  20.4 °C 56.8 °F /  13.8 °C 29.72in /  1006.3hPa West 4mph /  6.4km/h 16mph /  25.7km/h 66% 0.00in /  0mm 257 W/m2
17:29 68.5 °F /  20.3 °C 57.6 °F /  14.2 °C 29.72in /  1006.3hPa NW 6.9mph /  11.1km/h 13mph /  20.9km/h 68% 0.00in /  0mm 554 W/m2
17:34 68.4 °F /  20.2 °C 57.4 °F /  14.1 °C 29.72in /  1006.3hPa West 17.9mph /  28.8km/h 18mph /  29km/h 68% 0.00in /  0mm 512 W/m2
17:39 68.5 °F /  20.3 °C 57.9 °F /  14.4 °C 29.72in /  1006.3hPa WNW 6.9mph /  11.1km/h 10mph /  16.1km/h 69% 0.00in /  0mm 482 W/m2
17:44 68.4 °F /  20.2 °C 57.7 °F /  14.3 °C 29.72in /  1006.3hPa NW 8.1mph /  13km/h 16mph /  25.7km/h 69% 0.00in /  0mm 475 W/m2
17:49 68.4 °F /  20.2 °C 57.7 °F /  14.3 °C 29.72in /  1006.3hPa WNW 10.1mph /  16.3km/h 15mph /  24.1km/h 69% 0.00in /  0mm 439 W/m2
17:54 68 °F /  20 °C 57.4 °F /  14.1 °C 29.72in /  1006.3hPa WNW 6.9mph /  11.1km/h 15mph /  24.1km/h 69% 0.00in /  0mm 434 W/m2
17:59 68.4 °F /  20.2 °C 58.3 °F /  14.6 °C 29.73in /  1006.7hPa WNW 11mph /  17.7km/h 13mph /  20.9km/h 70% 0.00in /  0mm 392 W/m2
18:04 68.2 °F /  20.1 °C 57.6 °F /  14.2 °C 29.73in /  1006.7hPa WSW 15mph /  24.1km/h 15mph /  24.1km/h 69% 0.00in /  0mm 424 W/m2
18:09 67.8 °F /  19.9 °C 57.2 °F /  14 °C 29.73in /  1006.7hPa NW 2.9mph /  4.7km/h 17mph /  27.4km/h 69% 0.00in /  0mm 199 W/m2
18:14 67.1 °F /  19.5 °C 57 °F /  13.9 °C 29.73in /  1006.7hPa WSW 12.1mph /  19.5km/h 16mph /  25.7km/h 70% 0.00in /  0mm 171 W/m2
18:19 67.5 °F /  19.7 °C 57 °F /  13.9 °C 29.73in /  1006.7hPa WNW 12.1mph /  19.5km/h 12mph /  19.3km/h 69% 0.00in /  0mm 431 W/m2
18:24 67.5 °F /  19.7 °C 57 °F /  13.9 °C 29.73in /  1006.7hPa West 8.1mph /  13km/h 19mph /  30.6km/h 69% 0.00in /  0mm 394 W/m2
18:29 67.1 °F /  19.5 °C 56.7 °F /  13.7 °C 29.73in /  1006.7hPa WSW 6.9mph /  11.1km/h 16mph /  25.7km/h 69% 0.00in /  0mm 374 W/m2
18:34 67.1 °F /  19.5 °C 56.7 °F /  13.7 °C 29.74in /  1007hPa NW 8.1mph /  13km/h 14mph /  22.5km/h 69% 0.00in /  0mm 346 W/m2
18:39 67.5 °F /  19.7 °C 57 °F /  13.9 °C 29.73in /  1006.7hPa West 11mph /  17.7km/h 11mph /  17.7km/h 69% 0.00in /  0mm 274 W/m2
18:44 67.1 °F /  19.5 °C 57 °F /  13.9 °C 29.73in /  1006.7hPa West 2mph /  3.2km/h 10mph /  16.1km/h 70% 0.00in /  0mm 281 W/m2
18:49 66.9 °F /  19.4 °C 56.5 °F /  13.6 °C 29.74in /  1007hPa WNW 12.1mph /  19.5km/h 13mph /  20.9km/h 69% 0.00in /  0mm 274 W/m2
18:54 66.9 °F /  19.4 °C 56.8 °F /  13.8 °C 29.74in /  1007hPa NW 4mph /  6.4km/h 9mph /  14.5km/h 70% 0.00in /  0mm 264 W/m2
18:59 67.1 °F /  19.5 °C 56.7 °F /  13.7 °C 29.73in /  1006.7hPa NW 17mph /  27.4km/h 17mph /  27.4km/h 69% 0.00in /  0mm 251 W/m2
19:04 66.9 °F /  19.4 °C 56.5 °F /  13.6 °C 29.74in /  1007hPa WNW 8.9mph /  14.3km/h 11mph /  17.7km/h 69% 0.00in /  0mm 209 W/m2
19:09 66.7 °F /  19.3 °C 56.3 °F /  13.5 °C 29.74in /  1007hPa WNW 4.9mph /  7.9km/h 13mph /  20.9km/h 69% 0.00in /  0mm 214 W/m2
19:14 66.9 °F /  19.4 °C 56.8 °F /  13.8 °C 29.74in /  1007hPa West 4mph /  6.4km/h 7mph /  11.3km/h 70% 0.00in /  0mm 190 W/m2
19:19 66.2 °F /  19 °C 56.1 °F /  13.4 °C 29.74in /  1007hPa WNW 11mph /  17.7km/h 15mph /  24.1km/h 70% 0.00in /  0mm 181 W/m2
19:24 66.2 °F /  19 °C 56.1 °F /  13.4 °C 29.74in /  1007hPa WNW 6mph /  9.7km/h 7mph /  11.3km/h 70% 0.00in /  0mm 172 W/m2
19:29 66.2 °F /  19 °C 56.1 °F /  13.4 °C 29.74in /  1007hPa WSW 10.1mph /  16.3km/h 13mph /  20.9km/h 70% 0.00in /  0mm 156 W/m2
19:34 65.8 °F /  18.8 °C 55.8 °F /  13.2 °C 29.74in /  1007hPa West 4mph /  6.4km/h 9mph /  14.5km/h 70% 0.00in /  0mm 137 W/m2
19:39 65.8 °F /  18.8 °C 55.8 °F /  13.2 °C 29.74in /  1007hPa West 6.9mph /  11.1km/h 9mph /  14.5km/h 70% 0.00in /  0mm 127 W/m2
19:44 65.8 °F /  18.8 °C 56.1 °F /  13.4 °C 29.74in /  1007hPa WNW 2mph /  3.2km/h 8mph /  12.9km/h 71% 0.00in /  0mm 113 W/m2
19:49 65.7 °F /  18.7 °C 55.9 °F /  13.3 °C 29.75in /  1007.3hPa West 4.9mph /  7.9km/h 9mph /  14.5km/h 71% 0.00in /  0mm 102 W/m2
19:54 65.5 °F /  18.6 °C 55.8 °F /  13.2 °C 29.75in /  1007.3hPa West 2mph /  3.2km/h 11mph /  17.7km/h 71% 0.00in /  0mm 72 W/m2
19:59 65.1 °F /  18.4 °C 55.4 °F /  13 °C 29.75in /  1007.3hPa West 4.9mph /  7.9km/h 10mph /  16.1km/h 71% 0.00in /  0mm 65 W/m2
20:04 64.9 °F /  18.3 °C 55.4 °F /  13 °C 29.75in /  1007.3hPa WNW 12mph /  19.3km/h 12mph /  19.3km/h 71% 0.00in /  0mm 47 W/m2
20:09 64.4 °F /  18 °C 55.2 °F /  12.9 °C 29.75in /  1007.3hPa WNW 2.9mph /  4.7km/h 10mph /  16.1km/h 72% 0.00in /  0mm 53 W/m2
20:14 64.2 °F /  17.9 °C 55 °F /  12.8 °C 29.75in /  1007.3hPa West 2mph /  3.2km/h 9mph /  14.5km/h 72% 0.00in /  0mm 46 W/m2
20:19 64.2 °F /  17.9 °C 55 °F /  12.8 °C 29.75in /  1007.3hPa WNW 4.9mph /  7.9km/h 9mph /  14.5km/h 72% 0.00in /  0mm 32 W/m2
20:24 63.7 °F /  17.6 °C 54.9 °F /  12.7 °C 29.75in /  1007.3hPa WNW 2.9mph /  4.7km/h 8mph /  12.9km/h 73% 0.00in /  0mm 23 W/m2
20:29 63.3 °F /  17.4 °C 54.5 °F /  12.5 °C 29.75in /  1007.3hPa West 6mph /  9.7km/h 13mph /  20.9km/h 73% 0.00in /  0mm 19 W/m2
20:34 63.1 °F /  17.3 °C 54.3 °F /  12.4 °C 29.75in /  1007.3hPa WNW 6mph /  9.7km/h 10mph /  16.1km/h 73% 0.00in /  0mm 18 W/m2
20:39 63 °F /  17.2 °C 54.1 °F /  12.3 °C 29.75in /  1007.3hPa WNW 2mph /  3.2km/h 7mph /  11.3km/h 73% 0.00in /  0mm 16 W/m2
20:44 62.8 °F /  17.1 °C 54.3 °F /  12.4 °C 29.75in /  1007.3hPa NW 4mph /  6.4km/h 7mph /  11.3km/h 74% 0.00in /  0mm 12 W/m2
20:49 62.6 °F /  17 °C 54.1 °F /  12.3 °C 29.75in /  1007.3hPa NW 8.1mph /  13km/h 8mph /  12.9km/h 74% 0.00in /  0mm 11 W/m2
20:54 62.4 °F /  16.9 °C 54 °F /  12.2 °C 29.75in /  1007.3hPa West 10mph /  16.1km/h 10mph /  16.1km/h 74% 0.00in /  0mm 7 W/m2
20:59 62.2 °F /  16.8 °C 53.8 °F /  12.1 °C 29.76in /  1007.7hPa NW 2.9mph /  4.7km/h 6mph /  9.7km/h 74% 0.00in /  0mm 5 W/m2
21:04 62.1 °F /  16.7 °C 53.6 °F /  12 °C 29.75in /  1007.3hPa NW 6mph /  9.7km/h 6mph /  9.7km/h 74% 0.00in /  0mm 0 W/m2
21:09 61.9 °F /  16.6 °C 53.8 °F /  12.1 °C 29.75in /  1007.3hPa NW 4mph /  6.4km/h 5mph /  8km/h 75% 0.00in /  0mm 0 W/m2
21:14 61.7 °F /  16.5 °C 53.8 °F /  12.1 °C 29.76in /  1007.7hPa WNW 6mph /  9.7km/h 6mph /  9.7km/h 75% 0.00in /  0mm 0 W/m2
21:19 61.5 °F /  16.4 °C 53.6 °F /  12 °C 29.76in /  1007.7hPa Calm   3mph /  4.8km/h 75% 0.00in /  0mm 0 W/m2
21:24 61.5 °F /  16.4 °C 53.6 °F /  12 °C 29.76in /  1007.7hPa WNW 2.9mph /  4.7km/h 3mph /  4.8km/h 75% 0.00in /  0mm 0 W/m2
21:29 61.3 °F /  16.3 °C 53.8 °F /  12.1 °C 29.76in /  1007.7hPa Calm   6mph /  9.7km/h 76% 0.00in /  0mm 0 W/m2
21:34 61.3 °F /  16.3 °C 53.8 °F /  12.1 °C 29.76in /  1007.7hPa Calm   3mph /  4.8km/h 76% 0.00in /  0mm 0 W/m2
21:39 61.2 °F /  16.2 °C 53.6 °F /  12 °C 29.76in /  1007.7hPa Calm   3mph /  4.8km/h 76% 0.00in /  0mm 0 W/m2
21:44 61 °F /  16.1 °C 53.8 °F /  12.1 °C 29.77in /  1008hPa Calm   3mph /  4.8km/h 77% 0.00in /  0mm 0 W/m2
21:49 60.6 °F /  15.9 °C 53.8 °F /  12.1 °C 29.76in /  1007.7hPa Calm   2mph /  3.2km/h 78% 0.00in /  0mm 0 W/m2
21:54 60.4 °F /  15.8 °C 53.6 °F /  12 °C 29.76in /  1007.7hPa WNW 2mph /  3.2km/h 5mph /  8km/h 78% 0.00in /  0mm 0 W/m2
21:59 60.3 °F /  15.7 °C 53.8 °F /  12.1 °C 29.76in /  1007.7hPa WNW 4.9mph /  7.9km/h 5mph /  8km/h 79% 0.00in /  0mm 0 W/m2
22:04 60.1 °F /  15.6 °C 54 °F /  12.2 °C 29.76in /  1007.7hPa WNW 4mph /  6.4km/h 5mph /  8km/h 80% 0.00in /  0mm 0 W/m2
22:09 59.9 °F /  15.5 °C 53.8 °F /  12.1 °C 29.76in /  1007.7hPa WNW 2.9mph /  4.7km/h 6mph /  9.7km/h 80% 0.00in /  0mm 0 W/m2
22:14 59.9 °F /  15.5 °C 54.1 °F /  12.3 °C 29.77in /  1008hPa NW 4.9mph /  7.9km/h 7mph /  11.3km/h 81% 0.00in /  0mm 0 W/m2
22:19 59.9 °F /  15.5 °C 54.1 °F /  12.3 °C 29.77in /  1008hPa NW 0.9mph /  1.4km/h 5mph /  8km/h 81% 0.00in /  0mm 0 W/m2
22:24 59.7 °F /  15.4 °C 54 °F /  12.2 °C 29.77in /  1008hPa NW 2mph /  3.2km/h 5mph /  8km/h 81% 0.00in /  0mm 0 W/m2
22:29 59.7 °F /  15.4 °C 54 °F /  12.2 °C 29.77in /  1008hPa NW 6mph /  9.7km/h 6mph /  9.7km/h 81% 0.00in /  0mm 0 W/m2
22:34 59.5 °F /  15.3 °C 54 °F /  12.2 °C 29.77in /  1008hPa NW 2mph /  3.2km/h 5mph /  8km/h 82% 0.00in /  0mm 0 W/m2
22:39 59.5 °F /  15.3 °C 54 °F /  12.2 °C 29.77in /  1008hPa WNW 2mph /  3.2km/h 6mph /  9.7km/h 82% 0.00in /  0mm 0 W/m2
22:44 59.5 °F /  15.3 °C 54 °F /  12.2 °C 29.77in /  1008hPa WNW 2.9mph /  4.7km/h 5mph /  8km/h 82% 0.00in /  0mm 0 W/m2
22:49 59.4 °F /  15.2 °C 53.8 °F /  12.1 °C 29.77in /  1008hPa WNW 2mph /  3.2km/h 2mph /  3.2km/h 82% 0.00in /  0mm 0 W/m2
22:54 59.4 °F /  15.2 °C 53.8 °F /  12.1 °C 29.77in /  1008hPa Calm   6mph /  9.7km/h 82% 0.00in /  0mm 0 W/m2
22:59 59.2 °F /  15.1 °C 53.6 °F /  12 °C 29.77in /  1008hPa WNW 2mph /  3.2km/h 4mph /  6.4km/h 82% 0.00in /  0mm 0 W/m2
23:04 59 °F /  15 °C 53.6 °F /  12 °C 29.77in /  1008hPa Calm   1mph /  1.6km/h 82% 0.00in /  0mm 0 W/m2
23:09 59 °F /  15 °C 53.8 °F /  12.1 °C 29.77in /  1008hPa WNW 2mph /  3.2km/h 3mph /  4.8km/h 83% 0.00in /  0mm 0 W/m2
23:14 58.8 °F /  14.9 °C 53.6 °F /  12 °C 29.77in /  1008hPa Calm   3mph /  4.8km/h 83% 0.00in /  0mm 0 W/m2
23:19 58.8 °F /  14.9 °C 53.6 °F /  12 °C 29.77in /  1008hPa WNW 0.9mph /  1.4km/h 2mph /  3.2km/h 83% 0.00in /  0mm 0 W/m2
23:24 58.6 °F /  14.8 °C 53.4 °F /  11.9 °C 29.77in /  1008hPa Calm   2mph /  3.2km/h 83% 0.00in /  0mm 0 W/m2
23:29 58.6 °F /  14.8 °C 53.4 °F /  11.9 °C 29.77in /  1008hPa WNW 0.9mph /  1.4km/h 1mph /  1.6km/h 83% 0.00in /  0mm 0 W/m2
23:34 58.6 °F /  14.8 °C 53.4 °F /  11.9 °C 29.78in /  1008.4hPa Calm   2mph /  3.2km/h 83% 0.00in /  0mm 0 W/m2
23:39 58.5 °F /  14.7 °C 53.6 °F /  12 °C 29.78in /  1008.4hPa Calm   1mph /  1.6km/h 84% 0.00in /  0mm 0 W/m2
23:44 58.5 °F /  14.7 °C 53.6 °F /  12 °C 29.78in /  1008.4hPa Calm   1mph /  1.6km/h 84% 0.00in /  0mm 0 W/m2
23:49 58.5 °F /  14.7 °C 53.6 °F /  12 °C 29.78in /  1008.4hPa Calm     84% 0.00in /  0mm 0 W/m2
23:54 58.5 °F /  14.7 °C 53.6 °F /  12 °C 29.78in /  1008.4hPa Calm     84% 0.00in /  0mm 0 W/m2
23:59 58.5 °F /  14.7 °C 53.6 °F /  12 °C 29.78in /  1008.4hPa Calm     84% 0.00in /  0mm 0 W/m2
Bath Spa Weather
Compliments of Weather Underground - 2 mb